createdAt,value
2022-12-12T00:04:46.536Z,17.47
2022-12-12T00:09:54.174Z,15.90
2022-12-12T00:14:59.564Z,17.70
2022-12-12T00:20:04.864Z,15.10
2022-12-12T00:25:13.386Z,16.07
2022-12-12T00:30:18.718Z,16.53
2022-12-12T00:35:24.296Z,17.00
2022-12-12T00:40:31.856Z,16.83
2022-12-12T00:45:36.829Z,15.33
2022-12-12T00:50:41.782Z,16.30
2022-12-12T00:55:49.442Z,15.23
2022-12-12T01:00:54.785Z,16.53
2022-12-12T01:05:59.720Z,16.43
2022-12-12T01:11:08.194Z,17.60
2022-12-12T01:16:14.086Z,16.07
2022-12-12T01:21:21.549Z,16.77
2022-12-12T01:26:29.170Z,15.47
2022-12-12T01:31:34.736Z,16.37
2022-12-12T01:36:39.794Z,16.83
2022-12-12T01:41:48.927Z,16.00
2022-12-12T01:46:53.978Z,16.40
2022-12-12T01:52:03.561Z,16.43
2022-12-12T01:57:16.123Z,18.80
2022-12-12T02:02:21.310Z,16.03
2022-12-12T02:07:26.292Z,15.80
2022-12-12T02:12:34.154Z,16.10
2022-12-12T02:18:03.568Z,17.67
2022-12-12T02:23:38.949Z,15.27
2022-12-12T02:29:19.386Z,16.77
2022-12-12T02:34:36.756Z,16.40
2022-12-12T02:39:52.327Z,17.17
2022-12-12T02:45:02.587Z,14.70
2022-12-12T02:50:13.800Z,16.87
2022-12-12T02:55:20.014Z,17.33
2022-12-12T03:00:25.536Z,17.73
2022-12-12T03:05:57.917Z,16.70
2022-12-12T03:11:06.632Z,15.63
2022-12-12T03:16:21.967Z,16.27
2022-12-12T03:21:38.571Z,15.93
2022-12-12T03:26:49.805Z,18.00
2022-12-12T03:32:00.225Z,17.77
2022-12-12T03:37:13.252Z,15.03
2022-12-12T03:42:24.170Z,15.80
2022-12-12T03:47:41.898Z,15.47
2022-12-12T03:52:54.675Z,15.67
2022-12-12T03:58:04.006Z,16.80
2022-12-12T04:03:17.710Z,15.87
2022-12-12T04:08:27.603Z,15.30
2022-12-12T04:13:38.711Z,16.20
2022-12-12T04:18:52.179Z,15.97
2022-12-12T04:24:08.388Z,15.70
2022-12-12T04:29:25.144Z,16.07
2022-12-12T04:34:42.284Z,14.90
2022-12-12T04:39:53.777Z,16.27
2022-12-12T04:45:04.073Z,17.77
2022-12-12T04:50:11.961Z,16.27
2022-12-12T04:55:24.983Z,16.47
2022-12-12T05:00:37.141Z,15.73
2022-12-12T05:05:46.928Z,14.90
2022-12-12T05:10:58.644Z,15.90
2022-12-12T05:16:07.054Z,15.17
2022-12-12T05:21:12.010Z,16.87
2022-12-12T05:26:24.978Z,14.97
2022-12-12T05:31:30.096Z,15.33
2022-12-12T05:36:37.635Z,15.20
2022-12-12T05:41:45.592Z,13.67
2022-12-12T05:46:50.741Z,14.43
2022-12-12T05:51:55.972Z,13.87
2022-12-12T05:57:03.504Z,13.67
2022-12-12T06:02:08.624Z,14.10
2022-12-12T06:07:13.753Z,14.63
2022-12-12T06:12:21.369Z,13.50
2022-12-12T06:17:31.350Z,13.47
2022-12-12T06:22:39.080Z,13.93
2022-12-12T06:27:46.889Z,14.33
2022-12-12T06:32:51.832Z,13.30
2022-12-12T06:37:56.769Z,15.80
2022-12-12T06:43:04.737Z,13.37
2022-12-12T06:48:10.036Z,14.13
2022-12-12T06:53:16.763Z,14.77
2022-12-12T06:58:24.433Z,13.73
2022-12-12T07:03:29.696Z,13.57
2022-12-12T07:08:34.647Z,13.30
2022-12-12T07:13:42.844Z,14.37
2022-12-12T07:18:49.817Z,14.80
2022-12-12T07:23:54.956Z,13.40
2022-12-12T07:29:03.826Z,13.47
2022-12-12T07:34:08.720Z,14.77
2022-12-12T07:39:20.152Z,14.83
2022-12-12T07:44:28.747Z,14.63
2022-12-12T07:49:34.442Z,15.43
2022-12-12T07:54:39.681Z,14.63
2022-12-12T07:59:47.388Z,16.77
2022-12-12T08:04:52.422Z,16.13
2022-12-12T08:10:00.078Z,15.50
2022-12-12T08:15:11.189Z,16.10
2022-12-12T08:20:20.606Z,16.07
2022-12-12T08:25:25.682Z,17.87
2022-12-12T08:30:33.289Z,16.97
2022-12-12T08:35:40.511Z,17.40
2022-12-12T08:40:56.071Z,16.73
2022-12-12T08:46:06.072Z,18.37
2022-12-12T08:51:15.563Z,18.27
2022-12-12T08:56:21.216Z,18.07
2022-12-12T09:01:30.711Z,18.40
2022-12-12T09:06:35.981Z,17.47
2022-12-12T09:11:43.358Z,18.00
2022-12-12T09:16:53.106Z,18.43
2022-12-12T09:21:58.915Z,18.80
2022-12-12T09:27:04.888Z,16.30
2022-12-12T09:32:18.694Z,16.80
2022-12-12T09:37:28.420Z,16.63
2022-12-12T09:42:37.265Z,16.20
2022-12-12T09:47:49.243Z,17.10
2022-12-12T09:52:57.581Z,15.37
2022-12-12T09:58:08.929Z,16.73
2022-12-12T10:03:37.424Z,16.47
2022-12-12T10:08:50.318Z,16.70
2022-12-12T10:13:59.935Z,18.33
2022-12-12T10:19:13.995Z,17.30
2022-12-12T10:24:33.159Z,16.03
2022-12-12T10:29:41.528Z,18.37
2022-12-12T10:35:03.426Z,17.80
2022-12-12T10:40:49.440Z,17.67
2022-12-12T10:46:19.578Z,17.53
2022-12-12T10:51:31.208Z,16.13
2022-12-12T10:56:36.451Z,17.93
2022-12-12T11:02:09.144Z,18.97
2022-12-12T11:07:22.300Z,16.93
2022-12-12T11:12:40.116Z,18.07
2022-12-12T11:17:46.466Z,17.97
2022-12-12T11:23:02.677Z,16.77
2022-12-12T11:28:09.636Z,17.93
2022-12-12T11:33:22.418Z,18.37
2022-12-12T11:38:35.878Z,15.43
2022-12-12T11:43:55.380Z,17.03
2022-12-12T11:49:03.850Z,16.70
2022-12-12T11:54:16.748Z,16.90
2022-12-12T12:00:01.393Z,17.37
2022-12-12T12:05:22.149Z,16.73
2022-12-12T12:10:49.170Z,15.77
2022-12-12T12:16:02.365Z,17.23
2022-12-12T12:21:32.046Z,16.00
2022-12-12T12:26:50.432Z,16.50
2022-12-12T12:32:19.431Z,16.10
2022-12-12T12:37:40.747Z,15.53
2022-12-12T12:43:02.857Z,17.20
2022-12-12T12:48:17.324Z,16.60
2022-12-12T12:53:35.304Z,17.03
2022-12-12T12:58:47.648Z,15.87
2022-12-12T13:03:59.761Z,17.23
2022-12-12T13:09:18.814Z,16.67
2022-12-12T13:14:40.990Z,16.67
2022-12-12T13:19:50.239Z,15.40
2022-12-12T13:25:02.512Z,15.67
2022-12-12T13:30:23.500Z,16.50
2022-12-12T13:35:33.891Z,15.40
2022-12-12T13:40:54.062Z,14.60
2022-12-12T13:46:24.481Z,14.23
2022-12-12T13:51:54.685Z,13.27
2022-12-12T13:57:14.650Z,12.97
2022-12-12T14:02:33.631Z,12.20
2022-12-12T14:07:42.595Z,12.03
2022-12-12T14:13:09.544Z,11.47
2022-12-12T14:18:46.192Z,11.60
2022-12-12T14:24:50.389Z,11.80
2022-12-12T14:30:07.940Z,11.73
2022-12-12T14:35:30.476Z,11.83
2022-12-12T14:40:44.848Z,12.00
2022-12-12T14:45:59.161Z,12.67
2022-12-12T14:51:09.321Z,12.63
2022-12-12T14:56:25.317Z,14.10
2022-12-12T15:01:35.756Z,13.77
2022-12-12T15:06:45.939Z,12.50
2022-12-12T15:11:55.070Z,12.47
2022-12-12T15:17:05.870Z,13.53
2022-12-12T15:22:14.303Z,12.70
2022-12-12T15:27:30.754Z,11.47
2022-12-12T15:32:51.911Z,14.90
2022-12-12T15:38:33.289Z,14.43
2022-12-12T15:43:57.497Z,15.50
2022-12-12T15:49:04.564Z,15.80
2022-12-12T15:54:39.735Z,16.93
2022-12-12T15:59:57.511Z,16.97
2022-12-12T16:05:29.861Z,16.83
2022-12-12T16:11:04.684Z,17.50
2022-12-12T16:16:48.158Z,17.20
2022-12-12T16:21:53.271Z,17.83
2022-12-12T16:27:00.657Z,17.70
2022-12-12T16:32:08.544Z,18.10
2022-12-12T16:37:25.511Z,17.77
2022-12-12T16:42:31.311Z,17.80
2022-12-12T16:47:39.393Z,17.67
2022-12-12T16:52:44.307Z,17.17
2022-12-12T16:57:49.737Z,17.07
2022-12-12T17:02:57.392Z,16.80
2022-12-12T17:08:02.455Z,16.73
2022-12-12T17:13:11.502Z,18.70
2022-12-12T17:18:19.146Z,16.60
2022-12-12T17:23:31.018Z,16.83
2022-12-12T17:28:37.073Z,16.70
2022-12-12T17:33:50.625Z,16.57
2022-12-12T17:38:56.781Z,16.97
2022-12-12T17:44:01.764Z,16.37
2022-12-12T17:49:11.631Z,16.47
2022-12-12T17:54:16.645Z,16.73
2022-12-12T17:59:21.617Z,15.87
2022-12-12T18:04:29.666Z,16.50
2022-12-12T18:09:35.896Z,16.00
2022-12-12T18:14:57.236Z,16.33
2022-12-12T18:20:05.113Z,15.30
2022-12-12T18:25:11.428Z,16.90
2022-12-12T18:30:17.533Z,17.17
2022-12-12T18:35:27.652Z,15.83
2022-12-12T18:40:35.920Z,17.30
2022-12-12T18:45:41.242Z,15.73
2022-12-12T18:50:51.966Z,16.43
2022-12-12T18:55:56.922Z,17.53
2022-12-12T19:01:07.196Z,17.73
2022-12-12T19:06:21.905Z,16.73
2022-12-12T19:11:28.950Z,17.30
2022-12-12T19:16:34.823Z,16.87
2022-12-12T19:21:43.158Z,18.83
2022-12-12T19:26:50.762Z,18.13
2022-12-12T19:31:58.782Z,18.27
2022-12-12T19:37:07.294Z,19.77
2022-12-12T19:42:13.874Z,18.27
2022-12-12T19:47:19.828Z,19.90
2022-12-12T19:52:30.486Z,19.10
2022-12-12T19:57:36.670Z,19.87
2022-12-12T20:02:44.303Z,20.07
2022-12-12T20:07:54.153Z,18.73
2022-12-12T20:13:00.756Z,19.30
2022-12-12T20:18:09.591Z,21.90
2022-12-12T20:23:21.249Z,18.77
2022-12-12T20:28:26.397Z,19.00
2022-12-12T20:33:31.597Z,18.20
2022-12-12T20:38:40.639Z,17.83
2022-12-12T20:43:46.419Z,17.93
2022-12-12T20:48:53.740Z,18.83
2022-12-12T20:54:06.098Z,17.63
2022-12-12T20:59:14.605Z,17.80
2022-12-12T21:04:21.197Z,17.73
2022-12-12T21:09:28.909Z,19.50
2022-12-12T21:14:36.054Z,18.77
2022-12-12T21:19:41.619Z,18.37
2022-12-12T21:24:51.547Z,18.13
2022-12-12T21:29:59.280Z,16.47
2022-12-12T21:35:04.362Z,16.60
2022-12-12T21:40:15.438Z,17.70
2022-12-12T21:45:20.446Z,18.10
2022-12-12T21:50:30.560Z,17.00
2022-12-12T21:55:41.899Z,16.03
2022-12-12T22:00:46.850Z,16.93
2022-12-12T22:05:51.932Z,17.37
2022-12-12T22:11:02.419Z,16.63
2022-12-12T22:16:10.693Z,17.53
2022-12-12T22:21:19.164Z,16.50
2022-12-12T22:26:29.053Z,18.07
2022-12-12T22:31:37.552Z,16.67
2022-12-12T22:36:46.420Z,15.37
2022-12-12T22:41:54.615Z,16.83
2022-12-12T22:46:59.602Z,16.43
2022-12-12T22:52:04.574Z,15.83
2022-12-12T22:57:12.167Z,15.77
2022-12-12T23:02:23.126Z,16.73
2022-12-12T23:07:30.270Z,15.53
2022-12-12T23:12:40.015Z,17.97
2022-12-12T23:17:45.042Z,16.17
2022-12-12T23:22:49.986Z,15.20
2022-12-12T23:27:57.738Z,15.80
2022-12-12T23:33:03.215Z,15.33
2022-12-12T23:38:08.230Z,14.50
2022-12-12T23:43:20.387Z,14.57
2022-12-12T23:48:27.187Z,15.40
2022-12-12T23:53:35.198Z,14.93
2022-12-12T23:58:44.870Z,14.47
